WZZ9252 EPWA-LICA
Flight info
| Callsign | WZZ9252 |
|---|---|
| Flight time | 2h 3m |
| Altitude | 38000 |
| Route | EVINA DCT LIGDI DCT SKARY DCT XOMBA DCT NIKAB DCT VEBAL DCT NOVLO DCT UNIPA DCT SPL DCT KATTI DCT POLIT M620 ARBUM |
| Aircraft | A320/M-SDE1E2E3FGIJ1J4RWXY/LB1 |
Departure
| Time | 2026-05-01 07:55 |
|---|---|
| Airport | Warsaw Chopin Airport (EPWA) |
Arrival
| Time | 2026-05-01 09:58 |
|---|---|
| Airport | Lamezia Terme Sant'Eufemia International Airport (LICA) |
| Time | Latitude | Longitude | Altitude | Speed | Heading |
|---|---|---|---|---|---|
| 2026-05-01 07:23 | 52.17970 | 20.96198 | 339 ft | 0 kts | 167° |
| 2026-05-01 07:40 | 52.17971 | 20.96198 | 362 ft | 1 kts | 167° |
| 2026-05-01 07:40 | 52.17993 | 20.96190 | 335 ft | 4 kts | 168° |
| 2026-05-01 07:40 | 52.18016 | 20.96194 | 334 ft | 4 kts | 234° |
| 2026-05-01 07:40 | 52.18026 | 20.96232 | 334 ft | 3 kts | 257° |
| 2026-05-01 07:41 | 52.18027 | 20.96236 | 334 ft | 0 kts | 258° |
| 2026-05-01 07:45 | 52.18027 | 20.96235 | 334 ft | 1 kts | 258° |
| 2026-05-01 07:45 | 52.18023 | 20.96210 | 335 ft | 5 kts | 258° |
| 2026-05-01 07:45 | 52.18013 | 20.96129 | 338 ft | 9 kts | 258° |
| 2026-05-01 07:45 | 52.17996 | 20.96014 | 335 ft | 12 kts | 250° |
| 2026-05-01 07:46 | 52.17945 | 20.95922 | 338 ft | 11 kts | 187° |
| 2026-05-01 07:46 | 52.17866 | 20.95983 | 335 ft | 14 kts | 151° |
| 2026-05-01 07:46 | 52.17663 | 20.96159 | 336 ft | 19 kts | 152° |
| 2026-05-01 07:47 | 52.17543 | 20.96265 | 336 ft | 19 kts | 151° |
| 2026-05-01 07:47 | 52.17416 | 20.96376 | 337 ft | 22 kts | 152° |
| 2026-05-01 07:47 | 52.17274 | 20.96500 | 334 ft | 24 kts | 152° |
| 2026-05-01 07:47 | 52.17133 | 20.96623 | 338 ft | 22 kts | 152° |
| 2026-05-01 07:48 | 52.16849 | 20.96868 | 336 ft | 23 kts | 152° |
| 2026-05-01 07:48 | 52.16708 | 20.96993 | 338 ft | 20 kts | 152° |
| 2026-05-01 07:48 | 52.16643 | 20.97129 | 337 ft | 16 kts | 112° |
| 2026-05-01 07:49 | 52.16592 | 20.97306 | 338 ft | 18 kts | 115° |
| 2026-05-01 07:49 | 52.16478 | 20.97713 | 335 ft | 13 kts | 115° |
| 2026-05-01 07:49 | 52.16433 | 20.97805 | 338 ft | 10 kts | 163° |
| 2026-05-01 07:50 | 52.16381 | 20.97779 | 337 ft | 0 kts | 205° |
| 2026-05-01 07:50 | 52.16357 | 20.97761 | 339 ft | 6 kts | 205° |
| 2026-05-01 07:50 | 52.16313 | 20.97728 | 335 ft | 7 kts | 204° |
| 2026-05-01 07:51 | 52.16305 | 20.97673 | 337 ft | 6 kts | 286° |
| 2026-05-01 07:51 | 52.16310 | 20.97658 | 337 ft | 0 kts | 293° |
| 2026-05-01 07:55 | 52.16702 | 20.96255 | 339 ft | 130 kts | 294° |
| 2026-05-01 07:55 | 52.17654 | 20.92954 | 1150 ft | 166 kts | 295° |
| 2026-05-01 07:56 | 52.17991 | 20.86933 | 2673 ft | 217 kts | 257° |
| 2026-05-01 07:56 | 52.17086 | 20.81737 | 3701 ft | 262 kts | 244° |
| 2026-05-01 07:57 | 52.15851 | 20.79497 | 4611 ft | 274 kts | 214° |
| 2026-05-01 07:57 | 52.12212 | 20.77180 | 6201 ft | 286 kts | 199° |
| 2026-05-01 07:58 | 52.08364 | 20.75032 | 7886 ft | 298 kts | 199° |
| 2026-05-01 07:58 | 52.04368 | 20.72785 | 9552 ft | 309 kts | 199° |
| 2026-05-01 07:59 | 52.00180 | 20.70405 | 10755 ft | 335 kts | 199° |
| 2026-05-01 07:59 | 51.95563 | 20.67789 | 11648 ft | 363 kts | 199° |
| 2026-05-01 08:00 | 51.85723 | 20.62214 | 14338 ft | 385 kts | 198° |
| 2026-05-01 08:01 | 51.78000 | 20.57866 | 16122 ft | 398 kts | 198° |
| 2026-05-01 08:01 | 51.75366 | 20.56381 | 16714 ft | 402 kts | 198° |
| 2026-05-01 08:01 | 51.72709 | 20.54889 | 17313 ft | 406 kts | 197° |
| 2026-05-01 08:02 | 51.67323 | 20.51866 | 18505 ft | 414 kts | 197° |
| 2026-05-01 08:02 | 51.64583 | 20.50334 | 19029 ft | 418 kts | 197° |
| 2026-05-01 08:03 | 51.59039 | 20.47243 | 20084 ft | 426 kts | 197° |
| 2026-05-01 08:03 | 51.56220 | 20.45670 | 20614 ft | 430 kts | 197° |
| 2026-05-01 08:03 | 51.50513 | 20.42493 | 21614 ft | 437 kts | 197° |
| 2026-05-01 08:04 | 51.44706 | 20.39279 | 22564 ft | 445 kts | 197° |
| 2026-05-01 08:04 | 51.39814 | 20.36575 | 23356 ft | 451 kts | 197° |
| 2026-05-01 08:05 | 51.34028 | 20.32398 | 24212 ft | 460 kts | 204° |
| 2026-05-01 08:05 | 51.31131 | 20.30196 | 24621 ft | 463 kts | 204° |
| 2026-05-01 08:05 | 51.27255 | 20.27254 | 25162 ft | 466 kts | 204° |
| 2026-05-01 08:06 | 51.22327 | 20.23518 | 25860 ft | 470 kts | 204° |
| 2026-05-01 08:06 | 51.16374 | 20.19026 | 26669 ft | 475 kts | 204° |
| 2026-05-01 08:07 | 51.10395 | 20.14537 | 27459 ft | 480 kts | 204° |
| 2026-05-01 08:07 | 51.04310 | 20.09981 | 28219 ft | 485 kts | 204° |
| 2026-05-01 08:08 | 51.01245 | 20.07691 | 28600 ft | 488 kts | 203° |
| 2026-05-01 08:08 | 50.95067 | 20.03085 | 29359 ft | 493 kts | 203° |
| 2026-05-01 08:09 | 50.88828 | 19.98447 | 30110 ft | 498 kts | 203° |
| 2026-05-01 08:09 | 50.85674 | 19.96097 | 30475 ft | 501 kts | 203° |
| 2026-05-01 08:09 | 50.82514 | 19.93742 | 30796 ft | 503 kts | 203° |
| 2026-05-01 08:10 | 50.76160 | 19.89027 | 31421 ft | 508 kts | 203° |
| 2026-05-01 08:10 | 50.69762 | 19.84309 | 32324 ft | 506 kts | 203° |
| 2026-05-01 08:11 | 50.63384 | 19.79623 | 33214 ft | 504 kts | 202° |
| 2026-05-01 08:11 | 50.57033 | 19.74965 | 34118 ft | 503 kts | 202° |
| 2026-05-01 08:12 | 50.50733 | 19.70367 | 34929 ft | 501 kts | 202° |
| 2026-05-01 08:12 | 50.47576 | 19.68064 | 35330 ft | 499 kts | 202° |
| 2026-05-01 08:12 | 50.41297 | 19.63484 | 36141 ft | 496 kts | 202° |
| 2026-05-01 08:13 | 50.38176 | 19.61215 | 36534 ft | 494 kts | 203° |
| 2026-05-01 08:13 | 50.35059 | 19.58957 | 36928 ft | 492 kts | 202° |
| 2026-05-01 08:13 | 50.28865 | 19.54487 | 37665 ft | 489 kts | 202° |
| 2026-05-01 08:14 | 50.25773 | 19.52311 | 38013 ft | 487 kts | 202° |
| 2026-05-01 08:14 | 50.22668 | 19.50181 | 38314 ft | 486 kts | 201° |
| 2026-05-01 08:14 | 50.16449 | 19.45992 | 38373 ft | 487 kts | 201° |
| 2026-05-01 08:15 | 50.07099 | 19.39678 | 38375 ft | 488 kts | 202° |
| 2026-05-01 08:16 | 50.00871 | 19.35433 | 38375 ft | 488 kts | 202° |
| 2026-05-01 08:16 | 49.94648 | 19.31201 | 38374 ft | 488 kts | 202° |
| 2026-05-01 08:17 | 49.88444 | 19.27015 | 38375 ft | 488 kts | 202° |
| 2026-05-01 08:17 | 49.82196 | 19.22812 | 38379 ft | 489 kts | 202° |
| 2026-05-01 08:18 | 49.75951 | 19.18617 | 38381 ft | 489 kts | 202° |
| 2026-05-01 08:19 | 49.63481 | 19.10281 | 38381 ft | 489 kts | 201° |
| 2026-05-01 08:19 | 49.57213 | 19.06119 | 38382 ft | 489 kts | 201° |
| 2026-05-01 08:20 | 49.50943 | 19.01971 | 38382 ft | 490 kts | 201° |
| 2026-05-01 08:20 | 49.44719 | 18.97842 | 38386 ft | 490 kts | 201° |
| 2026-05-01 08:21 | 49.38382 | 18.94002 | 38394 ft | 489 kts | 198° |
| 2026-05-01 08:21 | 49.31950 | 18.90544 | 38403 ft | 489 kts | 197° |
| 2026-05-01 08:22 | 49.25523 | 18.87110 | 38409 ft | 490 kts | 198° |
| 2026-05-01 08:22 | 49.19105 | 18.83548 | 38409 ft | 490 kts | 198° |
| 2026-05-01 08:23 | 49.12696 | 18.79944 | 38417 ft | 491 kts | 198° |
| 2026-05-01 08:23 | 49.06279 | 18.76370 | 38407 ft | 491 kts | 198° |
| 2026-05-01 08:24 | 48.99882 | 18.72856 | 38398 ft | 491 kts | 198° |
| 2026-05-01 08:24 | 48.93452 | 18.69325 | 38393 ft | 492 kts | 198° |
| 2026-05-01 08:25 | 48.86997 | 18.65782 | 38391 ft | 493 kts | 198° |
| 2026-05-01 08:25 | 48.80540 | 18.62248 | 38392 ft | 493 kts | 198° |
| 2026-05-01 08:26 | 48.74075 | 18.58727 | 38389 ft | 494 kts | 198° |
| 2026-05-01 08:26 | 48.67599 | 18.55199 | 38389 ft | 494 kts | 198° |
| 2026-05-01 08:27 | 48.61126 | 18.51684 | 38394 ft | 494 kts | 198° |
| 2026-05-01 08:27 | 48.54700 | 18.48210 | 38398 ft | 493 kts | 198° |
| 2026-05-01 08:28 | 48.48226 | 18.44722 | 38398 ft | 493 kts | 198° |
| 2026-05-01 08:28 | 48.41761 | 18.41241 | 38399 ft | 493 kts | 198° |
| 2026-05-01 08:29 | 48.35296 | 18.37765 | 38402 ft | 493 kts | 198° |
| 2026-05-01 08:29 | 48.28819 | 18.34300 | 38400 ft | 493 kts | 198° |
| 2026-05-01 08:30 | 48.22339 | 18.30849 | 38403 ft | 493 kts | 198° |
| 2026-05-01 08:30 | 48.15866 | 18.27397 | 38402 ft | 494 kts | 198° |
| 2026-05-01 08:31 | 48.09428 | 18.23973 | 38405 ft | 494 kts | 198° |
| 2026-05-01 08:31 | 48.02939 | 18.20539 | 38408 ft | 494 kts | 198° |
| 2026-05-01 08:32 | 47.96443 | 18.17111 | 38412 ft | 495 kts | 198° |
| 2026-05-01 08:32 | 47.89941 | 18.13689 | 38410 ft | 495 kts | 198° |
| 2026-05-01 08:33 | 47.83441 | 18.10274 | 38418 ft | 495 kts | 198° |
| 2026-05-01 08:33 | 47.76979 | 18.06877 | 38418 ft | 495 kts | 198° |
| 2026-05-01 08:34 | 47.70442 | 18.03614 | 38423 ft | 495 kts | 195° |
| 2026-05-01 08:34 | 47.63852 | 18.00637 | 38426 ft | 494 kts | 194° |
| 2026-05-01 08:35 | 47.57259 | 17.97699 | 38428 ft | 494 kts | 195° |
| 2026-05-01 08:35 | 47.50727 | 17.94708 | 38429 ft | 494 kts | 195° |
| 2026-05-01 08:36 | 47.44167 | 17.91673 | 38425 ft | 493 kts | 195° |
| 2026-05-01 08:36 | 47.37618 | 17.88659 | 38424 ft | 493 kts | 195° |
| 2026-05-01 08:37 | 47.31065 | 17.85674 | 38426 ft | 492 kts | 195° |
| 2026-05-01 08:37 | 47.24532 | 17.82701 | 38429 ft | 491 kts | 195° |
| 2026-05-01 08:38 | 47.17991 | 17.79722 | 38424 ft | 491 kts | 195° |
| 2026-05-01 08:38 | 47.11468 | 17.76759 | 38418 ft | 490 kts | 195° |
| 2026-05-01 08:39 | 47.04988 | 17.73836 | 38413 ft | 489 kts | 195° |
| 2026-05-01 08:39 | 46.98477 | 17.70904 | 38415 ft | 489 kts | 195° |
| 2026-05-01 08:40 | 46.88729 | 17.66518 | 38420 ft | 488 kts | 195° |
| 2026-05-01 08:40 | 46.82232 | 17.63606 | 38423 ft | 488 kts | 195° |
| 2026-05-01 08:41 | 46.75747 | 17.60710 | 38424 ft | 487 kts | 195° |
| 2026-05-01 08:41 | 46.69303 | 17.57846 | 38426 ft | 486 kts | 195° |
| 2026-05-01 08:42 | 46.62835 | 17.54972 | 38423 ft | 486 kts | 195° |
| 2026-05-01 08:42 | 46.56340 | 17.52212 | 38425 ft | 485 kts | 193° |
| 2026-05-01 08:43 | 46.49827 | 17.49649 | 38423 ft | 484 kts | 193° |
| 2026-05-01 08:43 | 46.43329 | 17.47121 | 38417 ft | 484 kts | 193° |
| 2026-05-01 08:44 | 46.36861 | 17.44570 | 38413 ft | 484 kts | 193° |
| 2026-05-01 08:44 | 46.30374 | 17.41989 | 38415 ft | 483 kts | 193° |
| 2026-05-01 08:45 | 46.24122 | 17.39501 | 38350 ft | 472 kts | 193° |
| 2026-05-01 08:45 | 46.17816 | 17.37007 | 38403 ft | 467 kts | 193° |
| 2026-05-01 08:46 | 46.11447 | 17.34497 | 38401 ft | 479 kts | 194° |
| 2026-05-01 08:46 | 46.05023 | 17.31969 | 38398 ft | 482 kts | 194° |
| 2026-05-01 08:47 | 45.98540 | 17.29426 | 38401 ft | 482 kts | 194° |
| 2026-05-01 08:47 | 45.92107 | 17.26635 | 38404 ft | 483 kts | 197° |
| 2026-05-01 08:48 | 45.86806 | 17.24124 | 38404 ft | 483 kts | 197° |
| 2026-05-01 08:48 | 45.80421 | 17.21112 | 38408 ft | 483 kts | 197° |
| 2026-05-01 08:49 | 45.73982 | 17.18168 | 38413 ft | 483 kts | 197° |
| 2026-05-01 08:49 | 45.67605 | 17.15306 | 38417 ft | 483 kts | 196° |
| 2026-05-01 08:50 | 45.61187 | 17.12429 | 38418 ft | 482 kts | 197° |
| 2026-05-01 08:50 | 45.54777 | 17.09551 | 38418 ft | 482 kts | 197° |
| 2026-05-01 08:51 | 45.48373 | 17.06675 | 38422 ft | 482 kts | 197° |
| 2026-05-01 08:51 | 45.42018 | 17.03817 | 38426 ft | 481 kts | 197° |
| 2026-05-01 08:52 | 45.35620 | 17.00952 | 38430 ft | 481 kts | 197° |
| 2026-05-01 08:52 | 45.29231 | 16.98103 | 38430 ft | 481 kts | 197° |
| 2026-05-01 08:53 | 45.22844 | 16.95268 | 38421 ft | 480 kts | 197° |
| 2026-05-01 08:53 | 45.16434 | 16.92591 | 38421 ft | 480 kts | 195° |
| 2026-05-01 08:54 | 45.09993 | 16.90086 | 38419 ft | 480 kts | 195° |
| 2026-05-01 08:54 | 45.03589 | 16.87593 | 38422 ft | 480 kts | 195° |
| 2026-05-01 08:55 | 44.97166 | 16.85048 | 38419 ft | 479 kts | 195° |
| 2026-05-01 08:55 | 44.90793 | 16.82500 | 38409 ft | 479 kts | 195° |
| 2026-05-01 08:56 | 44.84322 | 16.79930 | 38409 ft | 479 kts | 195° |
| 2026-05-01 08:56 | 44.77892 | 16.77399 | 38403 ft | 479 kts | 195° |
| 2026-05-01 08:57 | 44.71464 | 16.74885 | 38398 ft | 479 kts | 195° |
| 2026-05-01 08:57 | 44.65070 | 16.72379 | 38398 ft | 479 kts | 195° |
| 2026-05-01 08:58 | 44.58647 | 16.69861 | 38389 ft | 479 kts | 195° |
| 2026-05-01 08:58 | 44.52217 | 16.67337 | 38384 ft | 479 kts | 195° |
| 2026-05-01 08:59 | 44.45833 | 16.64841 | 38373 ft | 479 kts | 195° |
| 2026-05-01 08:59 | 44.39422 | 16.62351 | 38368 ft | 479 kts | 195° |
| 2026-05-01 09:00 | 44.32977 | 16.59856 | 38357 ft | 478 kts | 196° |
| 2026-05-01 09:00 | 44.26556 | 16.57367 | 38342 ft | 478 kts | 196° |
| 2026-05-01 09:01 | 44.20174 | 16.54900 | 38333 ft | 479 kts | 196° |
| 2026-05-01 09:01 | 44.13737 | 16.52422 | 38326 ft | 479 kts | 196° |
| 2026-05-01 09:02 | 44.07311 | 16.49944 | 38326 ft | 479 kts | 196° |
| 2026-05-01 09:02 | 44.00880 | 16.47494 | 38321 ft | 479 kts | 195° |
| 2026-05-01 09:03 | 43.94404 | 16.45287 | 38314 ft | 478 kts | 194° |
| 2026-05-01 09:03 | 43.87914 | 16.43205 | 38302 ft | 478 kts | 194° |
| 2026-05-01 09:04 | 43.81433 | 16.41081 | 38296 ft | 478 kts | 194° |
| 2026-05-01 09:04 | 43.74972 | 16.38908 | 38293 ft | 478 kts | 194° |
| 2026-05-01 09:05 | 43.68550 | 16.36744 | 38289 ft | 478 kts | 194° |
| 2026-05-01 09:05 | 43.62089 | 16.34593 | 38293 ft | 476 kts | 194° |
| 2026-05-01 09:06 | 43.55634 | 16.32459 | 38301 ft | 475 kts | 194° |
| 2026-05-01 09:06 | 43.49193 | 16.30327 | 38298 ft | 474 kts | 194° |
| 2026-05-01 09:07 | 43.42769 | 16.28480 | 38297 ft | 474 kts | 191° |
| 2026-05-01 09:07 | 43.36280 | 16.26879 | 38292 ft | 473 kts | 191° |
| 2026-05-01 09:08 | 43.29795 | 16.25274 | 38295 ft | 473 kts | 191° |
| 2026-05-01 09:08 | 43.23332 | 16.23603 | 38297 ft | 472 kts | 192° |
| 2026-05-01 09:09 | 43.16870 | 16.21895 | 38292 ft | 472 kts | 192° |
| 2026-05-01 09:09 | 43.10440 | 16.20212 | 38292 ft | 472 kts | 192° |
| 2026-05-01 09:10 | 43.03984 | 16.18541 | 38290 ft | 472 kts | 192° |
| 2026-05-01 09:10 | 42.97509 | 16.16870 | 38293 ft | 472 kts | 192° |
| 2026-05-01 09:11 | 42.91048 | 16.15208 | 38299 ft | 472 kts | 192° |
| 2026-05-01 09:11 | 42.84591 | 16.13544 | 38301 ft | 471 kts | 192° |
| 2026-05-01 09:12 | 42.78154 | 16.11880 | 38305 ft | 470 kts | 192° |
| 2026-05-01 09:12 | 42.71719 | 16.10229 | 38305 ft | 469 kts | 192° |
| 2026-05-01 09:13 | 42.65297 | 16.08587 | 38304 ft | 469 kts | 192° |
| 2026-05-01 09:13 | 42.58925 | 16.06962 | 38300 ft | 468 kts | 192° |
| 2026-05-01 09:14 | 42.52522 | 16.05326 | 38300 ft | 467 kts | 194° |
| 2026-05-01 09:14 | 42.46397 | 16.02545 | 38302 ft | 463 kts | 204° |
| 2026-05-01 09:15 | 42.40440 | 15.99351 | 38290 ft | 462 kts | 204° |
| 2026-05-01 09:15 | 42.34457 | 15.96160 | 38290 ft | 461 kts | 204° |
| 2026-05-01 09:16 | 42.28486 | 15.92991 | 38292 ft | 461 kts | 204° |
| 2026-05-01 09:17 | 42.19524 | 15.88239 | 38285 ft | 460 kts | 204° |
| 2026-05-01 09:17 | 42.10618 | 15.83524 | 38287 ft | 460 kts | 204° |
| 2026-05-01 09:18 | 42.01674 | 15.78816 | 38283 ft | 459 kts | 204° |
| 2026-05-01 09:19 | 41.92733 | 15.74122 | 38284 ft | 459 kts | 205° |
| 2026-05-01 09:20 | 41.83837 | 15.69453 | 38286 ft | 459 kts | 205° |
| 2026-05-01 09:21 | 41.71918 | 15.63237 | 38269 ft | 458 kts | 205° |
| 2026-05-01 09:21 | 41.63000 | 15.58592 | 38268 ft | 458 kts | 205° |
| 2026-05-01 09:22 | 41.51181 | 15.52445 | 38276 ft | 456 kts | 205° |
| 2026-05-01 09:23 | 41.42305 | 15.47868 | 38264 ft | 455 kts | 205° |
| 2026-05-01 09:24 | 41.33431 | 15.43293 | 38258 ft | 455 kts | 205° |
| 2026-05-01 09:25 | 41.21676 | 15.37238 | 38253 ft | 454 kts | 206° |
| 2026-05-01 09:26 | 41.12835 | 15.32723 | 38242 ft | 453 kts | 206° |
| 2026-05-01 09:26 | 41.04039 | 15.28243 | 38241 ft | 452 kts | 206° |
| 2026-05-01 09:27 | 40.95205 | 15.23753 | 38233 ft | 452 kts | 206° |
| 2026-05-01 09:28 | 40.89333 | 15.20776 | 38235 ft | 451 kts | 206° |
| 2026-05-01 09:28 | 40.83482 | 15.17795 | 38222 ft | 450 kts | 206° |
| 2026-05-01 09:29 | 40.74739 | 15.13366 | 38201 ft | 450 kts | 206° |
| 2026-05-01 09:30 | 40.65957 | 15.08942 | 38207 ft | 449 kts | 207° |
| 2026-05-01 09:30 | 40.57192 | 15.04537 | 38201 ft | 449 kts | 207° |
| 2026-05-01 09:31 | 40.51394 | 15.01636 | 38201 ft | 448 kts | 207° |
| 2026-05-01 09:32 | 40.43618 | 14.97743 | 38194 ft | 448 kts | 207° |
| 2026-05-01 09:32 | 40.34867 | 14.93367 | 38187 ft | 449 kts | 207° |
| 2026-05-01 09:33 | 40.29023 | 14.90459 | 38188 ft | 449 kts | 207° |
| 2026-05-01 09:34 | 40.20158 | 14.86410 | 38183 ft | 458 kts | 195° |
| 2026-05-01 09:34 | 40.16955 | 14.86112 | 38184 ft | 468 kts | 182° |
| 2026-05-01 09:34 | 40.10623 | 14.88443 | 38181 ft | 485 kts | 153° |
| 2026-05-01 09:35 | 40.07861 | 14.91018 | 38181 ft | 490 kts | 141° |
| 2026-05-01 09:35 | 40.02741 | 14.96837 | 38140 ft | 491 kts | 142° |
| 2026-05-01 09:35 | 40.00144 | 14.99778 | 37515 ft | 494 kts | 142° |
| 2026-05-01 09:36 | 39.97543 | 15.02713 | 37025 ft | 495 kts | 142° |
| 2026-05-01 09:36 | 39.94941 | 15.05642 | 36539 ft | 496 kts | 142° |
| 2026-05-01 09:36 | 39.92322 | 15.08584 | 36039 ft | 497 kts | 142° |
| 2026-05-01 09:36 | 39.89698 | 15.11533 | 35499 ft | 497 kts | 143° |
| 2026-05-01 09:37 | 39.87083 | 15.14471 | 34970 ft | 496 kts | 143° |
| 2026-05-01 09:37 | 39.81854 | 15.20341 | 33867 ft | 496 kts | 143° |
| 2026-05-01 09:37 | 39.79236 | 15.23269 | 33191 ft | 497 kts | 144° |
| 2026-05-01 09:38 | 39.74013 | 15.29105 | 31901 ft | 498 kts | 144° |
| 2026-05-01 09:38 | 39.71388 | 15.32038 | 31273 ft | 498 kts | 144° |
| 2026-05-01 09:38 | 39.68760 | 15.34977 | 30662 ft | 497 kts | 144° |
| 2026-05-01 09:39 | 39.63512 | 15.40836 | 29313 ft | 496 kts | 144° |
| 2026-05-01 09:39 | 39.60891 | 15.43748 | 28741 ft | 492 kts | 144° |
| 2026-05-01 09:39 | 39.58315 | 15.46614 | 28377 ft | 484 kts | 144° |
| 2026-05-01 09:40 | 39.55812 | 15.49399 | 27969 ft | 477 kts | 144° |
| 2026-05-01 09:40 | 39.50824 | 15.54937 | 27120 ft | 466 kts | 144° |
| 2026-05-01 09:40 | 39.48366 | 15.57656 | 26709 ft | 461 kts | 144° |
| 2026-05-01 09:41 | 39.45930 | 15.60349 | 26280 ft | 458 kts | 144° |
| 2026-05-01 09:41 | 39.41122 | 15.65660 | 25424 ft | 452 kts | 144° |
| 2026-05-01 09:41 | 39.38733 | 15.68295 | 24979 ft | 449 kts | 144° |
| 2026-05-01 09:42 | 39.36361 | 15.70908 | 24561 ft | 447 kts | 144° |
| 2026-05-01 09:42 | 39.34027 | 15.73478 | 24147 ft | 444 kts | 144° |
| 2026-05-01 09:42 | 39.29350 | 15.78607 | 23228 ft | 438 kts | 144° |
| 2026-05-01 09:43 | 39.24728 | 15.83669 | 22239 ft | 431 kts | 144° |
| 2026-05-01 09:43 | 39.22446 | 15.86166 | 21759 ft | 428 kts | 143° |
| 2026-05-01 09:43 | 39.20190 | 15.88641 | 21289 ft | 425 kts | 142° |
| 2026-05-01 09:44 | 39.15914 | 15.93829 | 20372 ft | 419 kts | 137° |
| 2026-05-01 09:44 | 39.13884 | 15.96497 | 19928 ft | 415 kts | 137° |
| 2026-05-01 09:44 | 39.11887 | 15.99156 | 19495 ft | 410 kts | 136° |
| 2026-05-01 09:45 | 39.09910 | 16.01770 | 19056 ft | 406 kts | 137° |
| 2026-05-01 09:45 | 39.06004 | 16.06832 | 18053 ft | 384 kts | 137° |
| 2026-05-01 09:45 | 39.04164 | 16.09177 | 17520 ft | 372 kts | 137° |
| 2026-05-01 09:46 | 39.02332 | 16.11495 | 17005 ft | 370 kts | 137° |
| 2026-05-01 09:46 | 39.00493 | 16.13819 | 16492 ft | 371 kts | 137° |
| 2026-05-01 09:46 | 38.98648 | 16.16152 | 15973 ft | 371 kts | 137° |
| 2026-05-01 09:46 | 38.96809 | 16.18481 | 15474 ft | 371 kts | 137° |
| 2026-05-01 09:47 | 38.94990 | 16.20787 | 14975 ft | 361 kts | 137° |
| 2026-05-01 09:47 | 38.93230 | 16.23019 | 14486 ft | 349 kts | 136° |
| 2026-05-01 09:47 | 38.91523 | 16.25185 | 14002 ft | 340 kts | 135° |
| 2026-05-01 09:47 | 38.90051 | 16.27526 | 13481 ft | 338 kts | 122° |
| 2026-05-01 09:48 | 38.88886 | 16.30170 | 13027 ft | 339 kts | 118° |
| 2026-05-01 09:48 | 38.87753 | 16.32815 | 12560 ft | 340 kts | 118° |
| 2026-05-01 09:48 | 38.86610 | 16.35475 | 12164 ft | 339 kts | 118° |
| 2026-05-01 09:48 | 38.85465 | 16.38130 | 11775 ft | 339 kts | 118° |
| 2026-05-01 09:49 | 38.84340 | 16.40733 | 11380 ft | 337 kts | 118° |
| 2026-05-01 09:49 | 38.83209 | 16.43349 | 10991 ft | 332 kts | 118° |
| 2026-05-01 09:49 | 38.82110 | 16.45885 | 10611 ft | 321 kts | 118° |
| 2026-05-01 09:49 | 38.81033 | 16.48369 | 10369 ft | 315 kts | 118° |
| 2026-05-01 09:50 | 38.79966 | 16.50831 | 10013 ft | 315 kts | 118° |
| 2026-05-01 09:50 | 38.78946 | 16.53306 | 9637 ft | 314 kts | 112° |
| 2026-05-01 09:50 | 38.78325 | 16.55956 | 9144 ft | 308 kts | 98° |
| 2026-05-01 09:50 | 38.78015 | 16.58654 | 8849 ft | 302 kts | 96° |
| 2026-05-01 09:51 | 38.77970 | 16.61291 | 8718 ft | 289 kts | 75° |
| 2026-05-01 09:51 | 38.78777 | 16.63543 | 8586 ft | 272 kts | 46° |
| 2026-05-01 09:51 | 38.80204 | 16.65004 | 8363 ft | 259 kts | 20° |
| 2026-05-01 09:51 | 38.81905 | 16.65571 | 7859 ft | 251 kts | 5° |
| 2026-05-01 09:52 | 38.83625 | 16.65595 | 7347 ft | 244 kts | 342° |
| 2026-05-01 09:52 | 38.85075 | 16.64582 | 6954 ft | 236 kts | 314° |
| 2026-05-01 09:52 | 38.85901 | 16.62864 | 6703 ft | 223 kts | 287° |
| 2026-05-01 09:52 | 38.86175 | 16.60957 | 6377 ft | 217 kts | 279° |
| 2026-05-01 09:53 | 38.86405 | 16.59036 | 6072 ft | 218 kts | 279° |
| 2026-05-01 09:53 | 38.86638 | 16.57110 | 5783 ft | 217 kts | 280° |
| 2026-05-01 09:53 | 38.86870 | 16.55197 | 5488 ft | 217 kts | 280° |
| 2026-05-01 09:53 | 38.87102 | 16.53283 | 5213 ft | 216 kts | 280° |
| 2026-05-01 09:54 | 38.87335 | 16.51368 | 4925 ft | 217 kts | 279° |
| 2026-05-01 09:54 | 38.87569 | 16.49425 | 4396 ft | 222 kts | 279° |
| 2026-05-01 09:54 | 38.87803 | 16.47469 | 3910 ft | 222 kts | 279° |
| 2026-05-01 09:54 | 38.88035 | 16.45508 | 3436 ft | 223 kts | 280° |
| 2026-05-01 09:55 | 38.88268 | 16.43538 | 2937 ft | 224 kts | 279° |
| 2026-05-01 09:55 | 38.88501 | 16.41555 | 2519 ft | 224 kts | 280° |
| 2026-05-01 09:55 | 38.88728 | 16.39616 | 2194 ft | 213 kts | 281° |
| 2026-05-01 09:55 | 38.88943 | 16.37797 | 1914 ft | 199 kts | 280° |
| 2026-05-01 09:56 | 38.89142 | 16.36106 | 1687 ft | 182 kts | 282° |
| 2026-05-01 09:56 | 38.89321 | 16.34583 | 1448 ft | 164 kts | 283° |
| 2026-05-01 09:56 | 38.89480 | 16.33225 | 1237 ft | 146 kts | 283° |
| 2026-05-01 09:56 | 38.89628 | 16.31976 | 1030 ft | 142 kts | 283° |
| 2026-05-01 09:57 | 38.89776 | 16.30731 | 844 ft | 139 kts | 282° |
| 2026-05-01 09:57 | 38.89919 | 16.29518 | 662 ft | 135 kts | 279° |
| 2026-05-01 09:57 | 38.90060 | 16.28323 | 482 ft | 135 kts | 276° |
| 2026-05-01 09:57 | 38.90203 | 16.27117 | 279 ft | 137 kts | 275° |
| 2026-05-01 09:58 | 38.90344 | 16.25917 | 89 ft | 135 kts | 274° |
| 2026-05-01 09:58 | 38.90471 | 16.24793 | 33 ft | 110 kts | 278° |
| 2026-05-01 09:58 | 38.90561 | 16.24039 | 29 ft | 61 kts | 278° |
| 2026-05-01 09:58 | 38.90626 | 16.23686 | 33 ft | 24 kts | 295° |
| 2026-05-01 09:59 | 38.90694 | 16.23550 | 33 ft | 13 kts | 307° |
| 2026-05-01 09:59 | 38.90766 | 16.23480 | 33 ft | 13 kts | 354° |
| 2026-05-01 09:59 | 38.90835 | 16.23549 | 32 ft | 12 kts | 74° |
| 2026-05-01 09:59 | 38.90831 | 16.23651 | 32 ft | 11 kts | 98° |
| 2026-05-01 10:00 | 38.90821 | 16.23750 | 32 ft | 9 kts | 90° |
| 2026-05-01 10:00 | 38.90864 | 16.23801 | 32 ft | 6 kts | 27° |
| 2026-05-01 10:00 | 38.90879 | 16.23863 | 32 ft | 9 kts | 95° |
| 2026-05-01 10:00 | 38.90869 | 16.23955 | 32 ft | 12 kts | 98° |
| 2026-05-01 10:01 | 38.90856 | 16.24068 | 32 ft | 14 kts | 99° |
| 2026-05-01 10:01 | 38.90839 | 16.24205 | 32 ft | 17 kts | 99° |
| 2026-05-01 10:01 | 38.90822 | 16.24349 | 32 ft | 14 kts | 98° |
| 2026-05-01 10:01 | 38.90809 | 16.24467 | 31 ft | 12 kts | 98° |
| 2026-05-01 10:02 | 38.90797 | 16.24582 | 32 ft | 10 kts | 98° |
| 2026-05-01 10:02 | 38.90788 | 16.24650 | 32 ft | 5 kts | 100° |
| 2026-05-01 10:02 | 38.90789 | 16.24658 | 32 ft | 1 kts | 81° |
| 2026-05-01 10:02 | 38.90802 | 16.24665 | 31 ft | 3 kts | 14° |
| 2026-05-01 10:03 | 38.90833 | 16.24671 | 32 ft | 2 kts | 9° |
| 2026-05-01 10:03 | 38.90844 | 16.24678 | 32 ft | 3 kts | 36° |
| 2026-05-01 10:03 | 38.90851 | 16.24688 | 31 ft | 0 kts | 47° |